VIJP/JAI METAR and TAF weather

Enter ICAO airport designator
Station Type Date Time Source
VIJP METAR 2019/10/21 02:30 UTC NOAA

VIJP 210230Z VRB03KT 3500 HZ FEW100 25/12 Q1017 NOSIG


Station Type Date Time Source
VIJP Decoded METAR 2019/10/21 02:30 UTC NOAA

Jaipur / Sanganer, India (VIJP) 26-49N 075-48E 390M
Oct 20, 2019 - 10:30 PM EDT / 2019.10.21 0230 UTC
Wind: Variable at 3 MPH (3 KT):0
Visibility: 2 mile(s):0
Sky conditions: mostly clear
Weather: haze
Temperature: 77 F (25 C)
Dew Point: 53 F (12 C)
Relative Humidity: 44%
Pressure (altimeter): 30.03 in. Hg (1017 hPa)
ob: VIJP 210230Z VRB03KT 3500 HZ FEW100 25/12 Q1017 NOSIG
cycle: 2

Station Type Date Time Source
VIJP TAF 2019/10/20 18:00 UTC NOAA

TAF VIJP 201700Z 2018/2124 VRB02KT 2500 HZ FEW100
BECMG 2100/2102 00000KT 2000 FU FEW035
BECMG 2104/2106 05005KT 4000 HZ FEW035 SCT100
BECMG 2112/2114 VRB02KT 2500 HZ FEW035

Example: see airport list